Time;durP1;ratioP1;P1;durP2;ratioP2;P2;SDS_P1;SDS_P2;PMS_P1;PMS_P2;Temp;Humidity;BMP_temperature;BMP_pressure;BME280_temperature;BME280_humidity;BME280_pressure;Samples;Min_cycle;Max_cycle;Signal;HPM_P1;HPM_P2
2023/10/28 00:00:32;;;;;;;0.40;0.20;;;11.70;84.60;;;;;;4987252;28;20327;-64
2023/10/28 00:02:57;;;;;;;0.40;0.20;;;11.70;84.60;;;;;;4987208;28;20055;-64
2023/10/28 00:05:24;;;;;;;0.95;0.28;;;11.70;84.70;;;;;;4987748;28;20034;-63
2023/10/28 00:07:50;;;;;;;0.30;0.10;;;11.60;84.70;;;;;;4987459;28;20044;-64
2023/10/28 00:10:16;;;;;;;0.20;0.20;;;11.60;84.80;;;;;;4985119;28;20030;-63
2023/10/28 00:12:41;;;;;;;0.47;0.20;;;11.60;84.80;;;;;;4986697;28;20026;-63
2023/10/28 00:15:08;;;;;;;0.38;0.30;;;11.60;85.00;;;;;;4987516;28;20038;-64
2023/10/28 00:17:33;;;;;;;1.48;0.30;;;11.60;85.10;;;;;;4986945;28;20550;-64
2023/10/28 00:20:04;;;;;;;1.63;0.30;;;11.50;85.20;;;;;;4987468;28;20177;-64
2023/10/28 00:22:33;;;;;;;1.08;0.30;;;11.50;85.30;;;;;;4987345;28;20030;-64
2023/10/28 00:24:59;;;;;;;0.30;0.20;;;11.50;85.40;;;;;;4986974;28;20053;-63
2023/10/28 00:27:25;;;;;;;0.68;0.20;;;11.40;85.50;;;;;;4987452;28;20027;-64
2023/10/28 00:29:52;;;;;;;1.23;0.30;;;11.40;85.50;;;;;;4987071;28;20049;-63
2023/10/28 00:32:22;;;;;;;2.15;0.30;;;11.40;85.50;;;;;;4987439;28;20506;-63
2023/10/28 00:34:49;;;;;;;0.70;0.30;;;11.40;85.40;;;;;;4986218;28;20173;-64
2023/10/28 00:37:14;;;;;;;0.30;0.20;;;11.40;85.50;;;;;;4987054;28;20039;-63
2023/10/28 00:39:42;;;;;;;0.52;0.30;;;11.40;85.50;;;;;;4987279;28;20121;-62
2023/10/28 00:42:13;;;;;;;0.73;0.32;;;11.40;85.40;;;;;;4987005;28;20113;-64
2023/10/28 00:44:41;;;;;;;1.73;0.32;;;11.40;85.30;;;;;;4986306;28;20266;-64
2023/10/28 00:47:07;;;;;;;2.15;0.50;;;11.40;85.30;;;;;;4987323;28;20042;-63
2023/10/28 00:49:33;;;;;;;1.08;0.40;;;11.40;85.30;;;;;;4986895;28;20038;-64
2023/10/28 00:51:59;;;;;;;0.50;0.40;;;11.40;85.20;;;;;;4986558;28;20053;-63
2023/10/28 00:54:26;;;;;;;2.13;0.50;;;11.40;85.10;;;;;;4986016;28;20045;-63
2023/10/28 00:56:56;;;;;;;0.55;0.30;;;11.40;85.00;;;;;;4986519;28;20458;-63
2023/10/28 00:59:22;;;;;;;0.77;0.30;;;11.40;85.00;;;;;;4986706;28;20049;-63
2023/10/28 01:01:47;;;;;;;0.77;0.32;;;11.40;85.00;;;;;;4981850;28;20030;-63
2023/10/28 01:04:13;;;;;;;2.85;0.50;;;11.40;85.00;;;;;;4986399;28;20437;-63
2023/10/28 01:06:39;;;;;;;2.95;0.25;;;11.40;84.80;;;;;;4986719;28;20311;-63
2023/10/28 01:09:05;;;;;;;2.08;0.30;;;11.40;84.80;;;;;;4984940;28;20472;-64
2023/10/28 01:11:30;;;;;;;3.22;0.30;;;11.40;84.70;;;;;;4983861;28;20049;-63
2023/10/28 01:13:56;;;;;;;1.33;0.40;;;11.40;84.60;;;;;;4986312;28;20085;-63
2023/10/28 01:16:22;;;;;;;1.60;0.22;;;11.40;84.60;;;;;;4986767;28;20030;-63
2023/10/28 01:18:56;;;;;;;2.38;0.30;;;11.40;84.60;;;;;;4985785;28;20026;-63
2023/10/28 01:21:22;;;;;;;1.17;0.40;;;11.40;84.40;;;;;;4978855;28;20456;-63
2023/10/28 01:23:47;;;;;;;2.97;0.60;;;11.40;84.40;;;;;;4985820;28;20026;-64
2023/10/28 01:26:13;;;;;;;1.58;0.40;;;11.40;84.30;;;;;;4985061;28;20164;-63
2023/10/28 01:28:38;;;;;;;4.30;0.40;;;11.40;84.30;;;;;;4985241;28;20379;-64
2023/10/28 01:31:05;;;;;;;3.78;0.30;;;11.40;84.20;;;;;;4983549;28;20503;-64
2023/10/28 01:33:31;;;;;;;1.58;0.40;;;11.40;84.20;;;;;;4985824;28;20077;-63
2023/10/28 01:35:57;;;;;;;1.77;0.30;;;11.30;84.20;;;;;;4985703;28;20085;-63
2023/10/28 01:38:23;;;;;;;0.85;0.30;;;11.40;84.20;;;;;;4985262;28;20502;-64
2023/10/28 01:40:51;;;;;;;1.65;0.40;;;11.30;84.10;;;;;;4984495;28;20122;-63
2023/10/28 01:43:17;;;;;;;3.13;0.40;;;11.30;84.10;;;;;;4985283;28;20038;-63
2023/10/28 01:45:42;;;;;;;1.48;0.40;;;11.30;84.10;;;;;;4985765;28;20181;-64
2023/10/28 01:48:08;;;;;;;1.63;0.45;;;11.30;84.10;;;;;;4985915;28;20565;-63
2023/10/28 01:50:33;;;;;;;2.42;0.50;;;11.30;84.10;;;;;;4985290;28;20030;-64
2023/10/28 01:52:59;;;;;;;2.55;0.40;;;11.30;84.10;;;;;;4986153;28;20631;-64
2023/10/28 01:55:25;;;;;;;1.55;0.30;;;11.30;84.10;;;;;;4985818;28;20037;-64
2023/10/28 01:57:51;;;;;;;1.77;0.30;;;11.30;84.10;;;;;;4986066;28;20038;-64
2023/10/28 02:00:16;;;;;;;1.60;0.43;;;11.30;84.20;;;;;;4986379;28;20050;-64
2023/10/28 02:02:45;;;;;;;1.58;0.30;;;11.30;84.10;;;;;;4985506;28;20114;-63
2023/10/28 02:05:11;;;;;;;1.35;0.40;;;11.30;84.10;;;;;;4985409;28;20054;-64
2023/10/28 02:07:37;;;;;;;2.65;0.40;;;11.30;84.20;;;;;;4986038;28;20120;-63
2023/10/28 02:10:07;;;;;;;2.30;0.40;;;11.30;84.30;;;;;;4984349;28;20435;-63
2023/10/28 02:12:36;;;;;;;2.50;0.40;;;11.30;84.40;;;;;;4982525;28;20041;-64
2023/10/28 02:15:07;;;;;;;1.17;0.38;;;11.30;84.40;;;;;;4985403;28;20108;-63
2023/10/28 02:17:35;;;;;;;2.47;0.35;;;11.30;84.40;;;;;;4985443;28;20026;-63
2023/10/28 02:20:03;;;;;;;0.70;0.22;;;11.30;84.40;;;;;;4985274;28;20234;-64
2023/10/28 02:22:32;;;;;;;2.25;0.30;;;11.30;84.50;;;;;;4985087;28;20555;-63
2023/10/28 02:24:58;;;;;;;0.45;0.20;;;11.30;84.50;;;;;;4985021;28;20506;-61
2023/10/28 02:27:24;;;;;;;1.17;0.25;;;11.30;84.50;;;;;;4985560;28;20186;-63
2023/10/28 02:29:49;;;;;;;0.88;0.30;;;11.30;84.60;;;;;;4984462;28;20290;-63
2023/10/28 02:32:15;;;;;;;1.17;0.43;;;11.30;84.60;;;;;;4985477;28;20105;-63
2023/10/28 02:34:43;;;;;;;1.15;0.30;;;11.30;84.50;;;;;;4984070;28;20574;-63
2023/10/28 02:37:10;;;;;;;0.98;0.25;;;11.30;84.60;;;;;;4987738;28;20121;-62
2023/10/28 02:39:36;;;;;;;1.08;0.20;;;11.30;84.60;;;;;;4988708;28;20490;-61
2023/10/28 02:42:02;;;;;;;1.02;0.22;;;11.30;84.80;;;;;;4988393;28;20081;-64
2023/10/28 02:44:30;;;;;;;1.15;0.20;;;11.20;84.80;;;;;;4988117;28;20078;-63
2023/10/28 02:46:56;;;;;;;2.38;0.30;;;11.30;84.90;;;;;;4988374;28;20038;-62
2023/10/28 02:49:21;;;;;;;2.10;0.40;;;11.20;84.90;;;;;;4988495;28;20054;-63
2023/10/28 02:51:47;;;;;;;0.43;0.30;;;11.20;84.90;;;;;;4987628;28;20031;-64
2023/10/28 02:54:15;;;;;;;1.48;0.45;;;11.20;85.00;;;;;;4988190;28;20151;-63
2023/10/28 02:56:41;;;;;;;2.88;0.30;;;11.20;85.00;;;;;;4987632;28;20325;-64
2023/10/28 02:59:07;;;;;;;0.80;0.30;;;11.20;85.00;;;;;;4988252;28;20121;-63
2023/10/28 03:01:38;;;;;;;2.08;0.38;;;11.20;85.00;;;;;;4987805;28;20034;-64
2023/10/28 03:04:04;;;;;;;0.70;0.20;;;11.20;85.20;;;;;;4987864;28;20495;-63
2023/10/28 03:06:30;;;;;;;1.48;0.50;;;11.20;85.10;;;;;;4987702;28;20042;-63
2023/10/28 03:08:55;;;;;;;2.42;0.45;;;11.20;85.20;;;;;;4986683;28;20319;-63
2023/10/28 03:11:21;;;;;;;2.03;0.32;;;11.20;85.10;;;;;;4986550;28;20526;-63
2023/10/28 03:13:46;;;;;;;1.00;0.40;;;11.20;85.20;;;;;;4988042;28;20042;-63
2023/10/28 03:16:12;;;;;;;0.98;0.30;;;11.20;85.20;;;;;;4987667;28;20110;-63
2023/10/28 03:18:38;;;;;;;1.52;0.45;;;11.20;85.20;;;;;;4987066;28;20065;-63
2023/10/28 03:21:04;;;;;;;1.23;0.40;;;11.20;85.20;;;;;;4987804;28;20709;-63
2023/10/28 03:23:30;;;;;;;1.38;0.40;;;11.20;85.20;;;;;;4987340;28;20030;-63
2023/10/28 03:25:56;;;;;;;0.88;0.30;;;11.30;85.30;;;;;;4986713;28;20042;-63
2023/10/28 03:28:22;;;;;;;0.65;0.30;;;11.30;85.20;;;;;;4987581;28;20085;-62
2023/10/28 03:30:47;;;;;;;0.65;0.25;;;11.20;85.20;;;;;;4986753;28;20398;-63
2023/10/28 03:33:13;;;;;;;0.40;0.30;;;11.20;85.20;;;;;;4986599;28;20042;-62
2023/10/28 03:35:38;;;;;;;0.80;0.40;;;11.20;85.30;;;;;;4987872;28;20045;-63
2023/10/28 03:38:04;;;;;;;2.42;0.65;;;11.20;85.30;;;;;;4987959;28;20042;-63
2023/10/28 03:40:29;;;;;;;3.28;0.40;;;11.20;85.30;;;;;;4986961;28;20437;-63
2023/10/28 03:42:55;;;;;;;0.90;0.30;;;11.20;85.30;;;;;;4987155;28;20042;-63
2023/10/28 03:45:21;;;;;;;1.15;0.40;;;11.20;85.30;;;;;;4987540;28;20038;-62
2023/10/28 03:47:46;;;;;;;0.85;0.38;;;11.20;85.40;;;;;;4986372;28;20553;-63
2023/10/28 03:50:12;;;;;;;1.45;0.20;;;11.20;85.40;;;;;;4987021;28;20471;-62
2023/10/28 03:52:37;;;;;;;1.00;0.30;;;11.20;85.30;;;;;;4987127;28;20433;-63
2023/10/28 03:55:03;;;;;;;0.85;0.40;;;11.20;85.50;;;;;;4986878;28;20057;-63
2023/10/28 03:57:29;;;;;;;0.75;0.30;;;11.20;85.50;;;;;;4987122;28;20513;-63
2023/10/28 03:59:55;;;;;;;1.75;0.40;;;11.30;85.50;;;;;;4986904;28;20056;-63
2023/10/28 04:02:20;;;;;;;1.73;0.40;;;11.30;85.50;;;;;;4986227;28;20441;-63
2023/10/28 04:04:46;;;;;;;1.08;0.28;;;11.20;85.50;;;;;;4985916;28;20092;-63
2023/10/28 04:07:12;;;;;;;0.90;0.30;;;11.20;85.40;;;;;;4987392;28;20034;-64
2023/10/28 04:09:37;;;;;;;1.08;0.40;;;11.30;85.50;;;;;;4986000;28;20502;-62
2023/10/28 04:12:05;;;;;;;1.27;0.50;;;11.30;85.30;;;;;;4984404;28;20034;-63
2023/10/28 04:14:35;;;;;;;0.70;0.30;;;11.30;85.10;;;;;;4986447;28;20034;-64
2023/10/28 04:17:01;;;;;;;0.80;0.30;;;11.30;85.10;;;;;;4986605;28;20038;-64
2023/10/28 04:19:27;;;;;;;1.27;0.40;;;11.30;85.10;;;;;;4986149;28;20035;-63
2023/10/28 04:21:54;;;;;;;1.02;0.60;;;11.30;84.90;;;;;;4986917;28;20157;-63
2023/10/28 04:24:19;;;;;;;1.00;0.40;;;11.30;85.00;;;;;;4986915;28;20073;-64
2023/10/28 04:26:45;;;;;;;2.28;0.50;;;11.30;85.00;;;;;;4985658;28;20046;-63
2023/10/28 04:29:10;;;;;;;1.10;0.50;;;11.30;85.00;;;;;;4986873;28;20046;-64
2023/10/28 04:31:36;;;;;;;2.22;0.57;;;11.30;85.00;;;;;;4986062;28;20073;-63
2023/10/28 04:34:03;;;;;;;1.40;0.60;;;11.20;85.00;;;;;;4986167;28;20410;-63
2023/10/28 04:36:29;;;;;;;1.25;0.57;;;11.20;85.10;;;;;;4985837;28;20045;-61
2023/10/28 04:38:54;;;;;;;2.45;0.50;;;11.20;85.00;;;;;;4986097;28;20046;-62
2023/10/28 04:41:20;;;;;;;0.50;0.32;;;11.20;85.90;;;;;;4986610;28;20034;-61
2023/10/28 04:43:45;;;;;;;3.17;0.50;;;11.20;85.20;;;;;;4985531;28;20487;-63
2023/10/28 04:46:11;;;;;;;1.80;0.40;;;11.10;85.20;;;;;;4986803;28;20041;-63
2023/10/28 04:48:38;;;;;;;1.45;0.45;;;11.10;85.20;;;;;;4985980;28;20034;-64
2023/10/28 04:51:05;;;;;;;0.68;0.38;;;11.10;85.20;;;;;;4986024;28;20062;-63
2023/10/28 04:53:31;;;;;;;3.63;0.60;;;11.00;85.20;;;;;;4984932;28;20543;-63
2023/10/28 04:55:56;;;;;;;1.50;0.45;;;11.00;85.20;;;;;;4986230;28;20616;-63
2023/10/28 04:58:24;;;;;;;2.38;0.50;;;11.00;85.20;;;;;;4985219;28;20457;-63
2023/10/28 05:00:49;;;;;;;1.25;0.50;;;11.00;85.30;;;;;;4984924;28;20504;-63
2023/10/28 05:03:15;;;;;;;1.65;0.55;;;11.10;85.30;;;;;;4986051;28;20046;-61
2023/10/28 05:05:41;;;;;;;1.75;0.50;;;11.00;85.30;;;;;;4985906;28;20537;-63
2023/10/28 05:08:07;;;;;;;0.93;0.40;;;11.00;85.30;;;;;;4986634;28;20097;-63
2023/10/28 05:10:32;;;;;;;0.98;0.50;;;11.00;85.30;;;;;;4980969;28;20034;-63
2023/10/28 05:12:59;;;;;;;1.98;0.50;;;11.00;85.30;;;;;;4979180;28;20049;-63
2023/10/28 05:15:25;;;;;;;1.02;0.40;;;10.90;85.30;;;;;;4985288;28;20030;-64
2023/10/28 05:17:50;;;;;;;1.08;0.30;;;10.90;85.30;;;;;;4986198;28;20504;-63
2023/10/28 05:20:16;;;;;;;0.93;0.40;;;10.90;85.40;;;;;;4985378;28;20768;-62
2023/10/28 05:22:42;;;;;;;0.45;0.30;;;10.90;85.40;;;;;;4985078;28;20529;-63
2023/10/28 05:25:08;;;;;;;0.90;0.35;;;10.90;85.40;;;;;;4985446;28;20719;-63
2023/10/28 05:27:34;;;;;;;0.60;0.50;;;10.90;85.40;;;;;;4985808;28;20442;-63
2023/10/28 05:30:00;;;;;;;0.93;0.70;;;10.90;85.30;;;;;;4984868;28;20050;-63
2023/10/28 05:32:26;;;;;;;1.02;0.70;;;10.90;85.40;;;;;;4985802;28;20042;-63
2023/10/28 05:34:52;;;;;;;2.53;1.50;;;10.80;85.30;;;;;;4985855;28;20034;-63
2023/10/28 05:37:17;;;;;;;2.53;1.95;;;10.90;85.40;;;;;;4986630;28;20604;-63
2023/10/28 05:39:43;;;;;;;2.08;1.88;;;10.80;85.30;;;;;;4985699;28;20026;-62
2023/10/28 05:42:11;;;;;;;2.28;1.77;;;10.80;85.30;;;;;;4985463;28;20414;-63
2023/10/28 05:44:37;;;;;;;2.95;1.35;;;10.80;85.30;;;;;;4985115;28;20294;-63
2023/10/28 05:47:04;;;;;;;3.70;1.08;;;10.80;85.40;;;;;;4985631;28;20522;-63
2023/10/28 05:49:30;;;;;;;1.13;1.00;;;10.80;85.40;;;;;;4985866;28;20466;-62
2023/10/28 05:51:56;;;;;;;1.13;1.00;;;10.80;85.50;;;;;;4985838;28;20068;-63
2023/10/28 05:54:21;;;;;;;1.73;1.40;;;10.80;85.50;;;;;;4986411;28;20026;-63
2023/10/28 05:56:47;;;;;;;2.13;1.00;;;10.80;85.50;;;;;;4984803;28;20041;-63
2023/10/28 05:59:13;;;;;;;1.58;0.95;;;10.80;85.50;;;;;;4985089;28;20061;-63
2023/10/28 06:01:38;;;;;;;1.90;0.93;;;10.70;85.50;;;;;;4985578;28;20142;-61
2023/10/28 06:04:04;;;;;;;0.75;0.70;;;10.80;85.60;;;;;;4984968;28;20594;-63
2023/10/28 06:06:30;;;;;;;1.30;0.90;;;10.80;85.60;;;;;;4985070;28;20030;-61
2023/10/28 06:09:00;;;;;;;1.73;0.68;;;10.80;85.60;;;;;;4984883;28;20112;-63
2023/10/28 06:11:26;;;;;;;0.80;0.50;;;10.80;85.70;;;;;;4988397;28;20060;-63
2023/10/28 06:13:52;;;;;;;2.67;0.65;;;10.70;85.60;;;;;;4987761;28;20038;-63
2023/10/28 06:16:20;;;;;;;1.85;0.55;;;10.80;85.70;;;;;;4989178;28;20034;-63
2023/10/28 06:18:46;;;;;;;1.33;0.45;;;10.80;85.70;;;;;;4988162;28;20506;-63
2023/10/28 06:21:14;;;;;;;1.35;0.60;;;10.80;85.70;;;;;;4989663;28;20058;-63
2023/10/28 06:23:40;;;;;;;1.83;0.60;;;10.80;85.80;;;;;;4988647;28;20337;-63
2023/10/28 06:26:07;;;;;;;2.08;0.80;;;10.80;86.00;;;;;;4989209;28;20117;-63
2023/10/28 06:28:37;;;;;;;3.03;0.80;;;10.80;86.00;;;;;;4987716;28;20118;-63
2023/10/28 06:31:03;;;;;;;1.05;0.50;;;10.80;86.00;;;;;;4988276;28;20041;-63
2023/10/28 06:33:29;;;;;;;0.93;0.50;;;10.80;86.10;;;;;;4989135;28;20030;-63
2023/10/28 06:35:54;;;;;;;1.55;0.80;;;10.80;86.20;;;;;;4989358;28;20031;-63
2023/10/28 06:38:20;;;;;;;2.05;0.70;;;10.80;86.20;;;;;;4989708;28;20034;-63
2023/10/28 06:40:48;;;;;;;2.38;0.82;;;10.90;86.20;;;;;;4988819;28;20147;-62
2023/10/28 06:43:15;;;;;;;0.88;0.50;;;10.90;86.30;;;;;;4989022;28;20395;-63
2023/10/28 06:45:41;;;;;;;0.50;0.40;;;10.90;86.30;;;;;;4988549;28;20064;-62
2023/10/28 06:48:07;;;;;;;1.75;0.50;;;10.90;86.20;;;;;;4988874;28;20049;-63
2023/10/28 06:50:33;;;;;;;1.10;0.40;;;11.00;86.30;;;;;;4987677;28;20054;-63
2023/10/28 06:53:01;;;;;;;0.63;0.32;;;11.00;86.30;;;;;;4987956;28;20100;-63
2023/10/28 06:55:27;;;;;;;0.80;0.45;;;11.00;86.20;;;;;;4987570;28;20030;-63
2023/10/28 06:57:54;;;;;;;1.05;0.40;;;11.10;86.30;;;;;;4988142;28;20178;-64
2023/10/28 07:00:23;;;;;;;0.85;0.45;;;11.10;86.20;;;;;;4988249;28;20038;-62
2023/10/28 07:02:49;;;;;;;2.17;0.50;;;11.20;86.20;;;;;;4984679;28;20034;-63
2023/10/28 07:05:14;;;;;;;2.17;0.50;;;11.20;86.20;;;;;;4989009;28;20104;-63
2023/10/28 07:07:40;;;;;;;1.50;0.50;;;11.20;86.10;;;;;;4988862;28;20038;-63
2023/10/28 07:10:06;;;;;;;1.13;0.60;;;11.30;86.10;;;;;;4988104;28;20485;-64
2023/10/28 07:12:33;;;;;;;1.75;0.50;;;11.30;86.00;;;;;;4986473;28;20289;-63
2023/10/28 07:14:59;;;;;;;1.23;0.40;;;11.30;86.10;;;;;;4988764;28;20066;-64
2023/10/28 07:17:25;;;;;;;2.95;0.50;;;11.40;86.20;;;;;;4989394;28;20057;-63
2023/10/28 07:19:54;;;;;;;1.42;0.50;;;11.40;86.10;;;;;;4988549;28;20038;-64
2023/10/28 07:22:20;;;;;;;1.13;0.50;;;11.50;86.10;;;;;;4988524;28;20030;-63
2023/10/28 07:24:47;;;;;;;1.38;0.50;;;11.50;86.00;;;;;;4986559;28;20042;-64
2023/10/28 07:27:13;;;;;;;1.77;0.45;;;11.60;86.00;;;;;;4988047;28;20038;-63
2023/10/28 07:29:39;;;;;;;1.23;0.50;;;11.70;86.00;;;;;;4988967;28;20042;-63
2023/10/28 07:32:06;;;;;;;1.45;0.50;;;11.70;85.70;;;;;;4988740;28;20541;-63
2023/10/28 07:34:32;;;;;;;1.42;0.40;;;11.70;85.50;;;;;;4988229;28;20050;-64
2023/10/28 07:37:00;;;;;;;2.05;0.52;;;11.80;85.50;;;;;;4988283;28;20120;-62
2023/10/28 07:39:26;;;;;;;2.88;0.98;;;11.90;85.30;;;;;;4988203;28;20057;-63
2023/10/28 07:41:55;;;;;;;1.80;0.40;;;11.90;85.20;;;;;;4987724;28;20491;-64
2023/10/28 07:44:21;;;;;;;1.25;0.40;;;12.00;85.10;;;;;;4988269;28;20402;-64
2023/10/28 07:46:47;;;;;;;1.55;0.57;;;12.00;84.80;;;;;;4986573;28;20042;-63
2023/10/28 07:49:13;;;;;;;1.75;0.50;;;12.10;84.70;;;;;;4988461;28;20502;-63
2023/10/28 07:51:39;;;;;;;2.25;0.60;;;12.10;84.60;;;;;;4987414;28;20031;-63
2023/10/28 07:54:04;;;;;;;1.60;0.60;;;12.20;84.30;;;;;;4987923;28;20416;-63
2023/10/28 07:56:31;;;;;;;5.45;0.75;;;12.20;84.20;;;;;;4987845;28;20453;-63
2023/10/28 07:59:00;;;;;;;1.10;0.60;;;12.30;84.20;;;;;;4987409;28;20049;-63
2023/10/28 08:01:27;;;;;;;0.93;0.35;;;12.30;84.00;;;;;;4986740;28;20406;-64
2023/10/28 08:03:53;;;;;;;1.45;0.40;;;12.40;83.50;;;;;;4987738;28;20562;-63
2023/10/28 08:06:19;;;;;;;2.38;0.45;;;12.50;82.60;;;;;;4988389;28;20117;-63
2023/10/28 08:08:46;;;;;;;1.33;0.60;;;12.40;82.80;;;;;;4987106;28;20050;-64
2023/10/28 08:11:13;;;;;;;2.10;0.55;;;12.50;82.60;;;;;;4986075;28;20037;-62
2023/10/28 08:13:39;;;;;;;0.90;0.50;;;12.60;82.60;;;;;;4987270;28;20030;-64
2023/10/28 08:16:09;;;;;;;1.67;0.50;;;12.70;82.60;;;;;;4988069;28;20030;-63
2023/10/28 08:18:35;;;;;;;1.45;0.70;;;12.70;82.20;;;;;;4987489;28;20438;-64
2023/10/28 08:21:01;;;;;;;2.08;0.47;;;12.80;82.00;;;;;;4987378;28;20125;-64
2023/10/28 08:23:28;;;;;;;2.03;0.40;;;12.80;81.90;;;;;;4987649;28;21026;-63
2023/10/28 08:25:55;;;;;;;2.20;0.45;;;12.90;81.70;;;;;;4987694;28;20045;-63
2023/10/28 08:28:21;;;;;;;3.45;0.47;;;12.90;81.70;;;;;;4987494;28;20038;-63
2023/10/28 08:30:47;;;;;;;0.90;0.32;;;13.00;81.50;;;;;;4986498;28;20042;-63
2023/10/28 08:33:12;;;;;;;1.50;0.50;;;13.10;81.40;;;;;;4987425;28;20526;-63
2023/10/28 08:35:38;;;;;;;1.25;0.50;;;13.10;81.10;;;;;;4987666;28;20034;-63
2023/10/28 08:38:06;;;;;;;1.92;0.75;;;13.20;80.80;;;;;;4987178;28;20034;-63
2023/10/28 08:40:33;;;;;;;2.10;0.68;;;13.20;80.70;;;;;;4986733;28;20023;-64
2023/10/28 08:42:59;;;;;;;2.30;0.40;;;13.30;80.50;;;;;;4987058;28;20042;-63
2023/10/28 08:45:26;;;;;;;4.10;0.47;;;13.40;80.10;;;;;;4988059;28;20035;-64
2023/10/28 08:47:53;;;;;;;0.98;0.50;;;13.40;80.00;;;;;;4986326;28;20380;-63
2023/10/28 08:50:23;;;;;;;2.00;0.45;;;13.50;79.30;;;;;;4987304;28;20545;-61
2023/10/28 08:52:51;;;;;;;1.58;0.40;;;13.50;78.90;;;;;;4985985;28;20034;-63
2023/10/28 08:55:20;;;;;;;1.25;0.32;;;13.60;79.10;;;;;;4987539;28;20088;-62
2023/10/28 08:57:46;;;;;;;1.75;0.50;;;13.60;79.20;;;;;;4987389;28;20026;-64
2023/10/28 09:00:17;;;;;;;0.70;0.40;;;13.70;79.20;;;;;;4988080;28;20030;-63
2023/10/28 09:02:45;;;;;;;1.10;0.50;;;13.80;79.20;;;;;;4986332;28;20558;-64
2023/10/28 09:05:15;;;;;;;0.90;0.50;;;13.80;78.80;;;;;;4987258;28;20406;-63
2023/10/28 09:07:45;;;;;;;1.52;0.55;;;13.80;76.80;;;;;;4987333;28;20368;-63
2023/10/28 09:10:11;;;;;;;2.95;0.50;;;13.90;77.70;;;;;;4983400;28;20034;-64
2023/10/28 09:12:37;;;;;;;0.90;0.40;;;13.90;77.50;;;;;;4983575;28;20380;-63
2023/10/28 09:15:03;;;;;;;1.92;0.50;;;14.00;77.50;;;;;;4986340;28;20038;-63
2023/10/28 09:17:29;;;;;;;1.60;0.30;;;14.00;77.70;;;;;;4987915;28;20035;-63
2023/10/28 09:19:56;;;;;;;2.25;0.43;;;14.00;77.30;;;;;;4987010;28;20039;-63
2023/10/28 09:22:23;;;;;;;2.38;0.60;;;14.10;77.50;;;;;;4986869;28;20053;-63
2023/10/28 09:24:52;;;;;;;1.35;0.60;;;14.10;77.10;;;;;;4986086;28;20436;-63
2023/10/28 09:27:17;;;;;;;0.85;0.43;;;14.20;77.30;;;;;;4979650;28;20042;-64
2023/10/28 09:29:43;;;;;;;4.35;0.60;;;14.20;77.00;;;;;;4985832;28;20644;-64
2023/10/28 09:32:09;;;;;;;1.52;0.47;;;14.30;76.30;;;;;;4986655;28;20046;-63
2023/10/28 09:34:35;;;;;;;1.20;0.30;;;14.30;76.00;;;;;;4986568;28;20465;-63
2023/10/28 09:37:03;;;;;;;1.35;0.32;;;14.30;75.40;;;;;;4986644;28;20042;-63
2023/10/28 09:39:30;;;;;;;1.35;0.40;;;14.30;75.60;;;;;;4985633;28;20054;-63
2023/10/28 09:41:56;;;;;;;1.98;0.50;;;14.40;75.60;;;;;;4985018;28;20034;-63
2023/10/28 09:44:23;;;;;;;1.60;0.55;;;14.40;75.60;;;;;;4986308;28;20050;-63
2023/10/28 09:46:56;;;;;;;1.60;0.50;;;14.50;75.60;;;;;;4989643;28;20034;-63
2023/10/28 09:49:24;;;;;;;1.52;0.40;;;14.50;75.30;;;;;;4984851;28;20084;-62
2023/10/28 09:51:56;;;;;;;1.02;0.50;;;14.60;75.00;;;;;;4989184;28;20034;-63
2023/10/28 09:54:25;;;;;;;2.47;0.50;;;14.60;74.20;;;;;;4990309;28;20125;-63
2023/10/28 09:56:53;;;;;;;1.88;0.40;;;14.70;74.30;;;;;;4989558;28;20034;-63
2023/10/28 09:59:23;;;;;;;1.20;0.40;;;14.70;73.50;;;;;;4989436;28;20134;-64
2023/10/28 10:02:01;;;;;;;1.23;0.40;;;14.80;72.80;;;;;;4988990;28;20121;-64
2023/10/28 10:04:29;;;;;;;0.65;0.28;;;15.00;72.70;;;;;;4989868;28;20045;-64
2023/10/28 10:06:55;;;;;;;1.70;0.45;;;14.90;72.50;;;;;;4990244;28;20078;-63
2023/10/28 10:09:21;;;;;;;2.72;0.77;;;14.90;73.20;;;;;;4990214;28;20406;-64
2023/10/28 10:11:49;;;;;;;4.68;0.63;;;14.90;73.50;;;;;;4987312;28;20034;-63
2023/10/28 10:14:17;;;;;;;2.60;0.75;;;15.00;72.50;;;;;;4988847;28;20042;-63
2023/10/28 10:16:49;;;;;;;1.27;0.50;;;15.00;72.70;;;;;;4989384;28;20524;-64
2023/10/28 10:19:30;;;;;;;1.30;0.40;;;15.10;72.30;;;;;;4990831;28;20037;-64
2023/10/28 10:21:56;;;;;;;1.35;0.55;;;15.20;71.70;;;;;;4990737;28;20406;-62
2023/10/28 10:24:22;;;;;;;1.55;0.50;;;15.30;71.90;;;;;;4990256;28;20498;-62
2023/10/28 10:26:59;;;;;;;3.13;0.70;;;15.40;71.40;;;;;;4989063;28;20057;-63
2023/10/28 10:29:29;;;;;;;2.42;0.70;;;15.40;70.00;;;;;;4989399;28;20116;-63
2023/10/28 10:31:56;;;;;;;2.80;0.60;;;15.40;69.70;;;;;;4989202;28;20597;-63
2023/10/28 10:34:39;;;;;;;3.92;0.57;;;15.40;70.00;;;;;;4989234;28;20533;-63
2023/10/28 10:37:05;;;;;;;4.13;0.70;;;15.50;68.80;;;;;;4990464;28;20912;-64
2023/10/28 10:39:42;;;;;;;2.10;0.55;;;15.50;69.50;;;;;;4990759;28;20026;-64
2023/10/28 10:42:10;;;;;;;3.17;0.65;;;15.60;68.30;;;;;;4990027;28;20514;-64
2023/10/28 10:44:36;;;;;;;0.95;0.50;;;15.60;69.50;;;;;;4989694;28;20090;-63
2023/10/28 10:47:04;;;;;;;2.08;0.80;;;15.60;69.30;;;;;;4990428;28;20462;-63
2023/10/28 10:49:30;;;;;;;1.35;0.57;;;15.70;68.50;;;;;;4990316;28;20074;-64
2023/10/28 10:51:59;;;;;;;3.55;0.80;;;15.70;68.90;;;;;;4989425;28;20031;-64
2023/10/28 10:54:29;;;;;;;1.85;0.50;;;15.70;68.10;;;;;;4989564;28;20081;-64
2023/10/28 10:56:55;;;;;;;1.98;0.50;;;15.80;67.90;;;;;;4988138;28;20049;-63
2023/10/28 10:59:20;;;;;;;2.45;0.70;;;15.80;67.90;;;;;;4990269;28;20363;-63
2023/10/28 11:01:46;;;;;;;1.92;0.50;;;15.80;66.70;;;;;;4989075;28;20034;-63
2023/10/28 11:04:12;;;;;;;3.33;0.93;;;15.90;68.10;;;;;;4989576;28;20030;-64
2023/10/28 11:06:38;;;;;;;1.52;0.52;;;15.90;67.90;;;;;;4989713;28;20066;-64
2023/10/28 11:09:05;;;;;;;1.65;0.47;;;16.00;67.40;;;;;;4986483;28;20049;-64
2023/10/28 11:11:35;;;;;;;4.05;0.60;;;16.00;67.50;;;;;;4985147;28;20031;-64
2023/10/28 11:14:04;;;;;;;3.50;0.68;;;16.10;67.00;;;;;;4987534;28;20666;-64
2023/10/28 11:16:31;;;;;;;2.42;0.60;;;16.20;66.90;;;;;;4985272;28;20451;-63
2023/10/28 11:19:03;;;;;;;1.42;0.47;;;16.20;66.60;;;;;;4989138;28;20038;-63
2023/10/28 11:21:32;;;;;;;3.20;0.60;;;16.20;65.90;;;;;;4989133;28;20360;-63
2023/10/28 11:23:58;;;;;;;2.42;0.57;;;16.30;64.80;;;;;;4988639;28;20221;-63
2023/10/28 11:26:25;;;;;;;4.72;0.93;;;16.30;65.70;;;;;;4989341;28;20119;-64
2023/10/28 11:28:52;;;;;;;2.85;0.50;;;16.40;65.30;;;;;;4988873;28;20042;-64
2023/10/28 11:31:20;;;;;;;3.63;0.60;;;16.40;64.70;;;;;;4988844;28;20045;-64
2023/10/28 11:33:48;;;;;;;1.58;0.40;;;16.40;63.30;;;;;;4988063;28;20034;-64
2023/10/28 11:36:16;;;;;;;2.17;0.60;;;16.50;65.00;;;;;;4988303;28;20085;-64
2023/10/28 11:38:43;;;;;;;2.67;0.60;;;16.50;65.50;;;;;;4987970;28;20030;-64
2023/10/28 11:41:10;;;;;;;1.33;0.50;;;16.60;65.70;;;;;;4987994;28;20030;-64
2023/10/28 11:43:36;;;;;;;2.47;0.50;;;16.70;65.60;;;;;;4988329;28;20034;-64
2023/10/28 11:46:03;;;;;;;1.40;0.50;;;16.70;64.80;;;;;;4987400;28;20058;-63
2023/10/28 11:48:29;;;;;;;2.35;0.50;;;16.70;64.30;;;;;;4987896;28;20498;-63
2023/10/28 11:50:56;;;;;;;2.45;0.45;;;16.80;64.80;;;;;;4988519;28;20121;-64
2023/10/28 11:53:26;;;;;;;3.13;0.60;;;16.90;64.50;;;;;;4987884;28;20522;-64
2023/10/28 11:55:52;;;;;;;2.17;0.60;;;16.90;63.50;;;;;;4986902;28;20430;-63
2023/10/28 11:58:18;;;;;;;3.45;0.75;;;16.90;63.50;;;;;;4988013;28;20042;-64
2023/10/28 12:00:45;;;;;;;1.63;0.57;;;16.90;62.90;;;;;;4986901;28;20383;-63
2023/10/28 12:03:13;;;;;;;3.38;0.60;;;16.90;63.40;;;;;;4987933;28;20512;-64
2023/10/28 12:05:39;;;;;;;2.47;0.60;;;17.00;63.80;;;;;;4988128;28;20050;-63
2023/10/28 12:08:05;;;;;;;1.50;0.50;;;17.00;63.20;;;;;;4987403;28;20038;-63
2023/10/28 12:10:34;;;;;;;2.00;0.73;;;17.00;62.70;;;;;;4987185;28;20033;-64
2023/10/28 12:13:01;;;;;;;3.05;0.60;;;17.00;62.90;;;;;;4987450;28;20046;-64
2023/10/28 12:15:26;;;;;;;1.73;0.60;;;17.10;62.90;;;;;;4986907;28;20047;-64
2023/10/28 12:17:53;;;;;;;1.42;0.50;;;17.10;62.90;;;;;;4987913;28;20028;-64
2023/10/28 12:20:19;;;;;;;4.35;0.57;;;17.10;63.20;;;;;;4987331;28;20043;-64
2023/10/28 12:22:45;;;;;;;2.42;0.50;;;17.10;62.70;;;;;;4986654;28;20491;-64
2023/10/28 12:25:12;;;;;;;3.03;0.70;;;17.10;62.60;;;;;;4987909;28;20030;-64
2023/10/28 12:27:38;;;;;;;3.35;0.90;;;17.10;63.00;;;;;;4987726;28;20034;-64
2023/10/28 12:30:06;;;;;;;2.72;0.70;;;17.10;63.10;;;;;;4987431;28;20030;-64
2023/10/28 12:32:32;;;;;;;2.92;0.73;;;17.20;63.30;;;;;;4987868;28;20042;-64
2023/10/28 12:34:57;;;;;;;2.60;0.57;;;17.20;63.10;;;;;;4987511;28;20248;-64
2023/10/28 12:37:23;;;;;;;1.08;0.43;;;17.20;62.60;;;;;;4988209;28;20127;-63
2023/10/28 12:39:49;;;;;;;2.38;0.60;;;17.30;62.80;;;;;;4987919;28;20049;-63
2023/10/28 12:42:15;;;;;;;3.08;0.60;;;17.30;62.80;;;;;;4981933;28;20073;-62
2023/10/28 12:44:41;;;;;;;5.45;0.70;;;17.40;62.40;;;;;;4985899;28;20105;-65